sensor_id;sensor_type;location;lat;lon;timestamp;P1;durP1;ratioP1;P2;durP2;ratioP2
19776;SDS011;10047;42.490;26.012;2022-12-10T00:02:05;73.20;;;38.08;;
19776;SDS011;10047;42.490;26.012;2022-12-10T00:04:30;64.82;;;36.58;;
19776;SDS011;10047;42.490;26.012;2022-12-10T00:06:55;66.22;;;35.95;;
19776;SDS011;10047;42.490;26.012;2022-12-10T00:09:21;75.75;;;39.50;;
19776;SDS011;10047;42.490;26.012;2022-12-10T00:11:46;79.88;;;40.97;;
19776;SDS011;10047;42.490;26.012;2022-12-10T00:14:12;59.80;;;35.10;;
19776;SDS011;10047;42.490;26.012;2022-12-10T00:16:38;63.75;;;34.55;;
19776;SDS011;10047;42.490;26.012;2022-12-10T00:19:04;60.55;;;35.20;;
19776;SDS011;10047;42.490;26.012;2022-12-10T00:21:31;77.20;;;37.97;;
19776;SDS011;10047;42.490;26.012;2022-12-10T00:23:58;71.85;;;38.30;;
19776;SDS011;10047;42.490;26.012;2022-12-10T00:26:28;76.97;;;38.92;;
19776;SDS011;10047;42.490;26.012;2022-12-10T00:28:59;80.03;;;39.05;;
19776;SDS011;10047;42.490;26.012;2022-12-10T00:31:30;75.55;;;38.28;;
19776;SDS011;10047;42.490;26.012;2022-12-10T00:33:58;72.82;;;39.10;;
19776;SDS011;10047;42.490;26.012;2022-12-10T00:36:32;70.75;;;37.30;;
19776;SDS011;10047;42.490;26.012;2022-12-10T00:39:00;68.32;;;36.53;;
19776;SDS011;10047;42.490;26.012;2022-12-10T00:41:28;78.18;;;40.10;;
19776;SDS011;10047;42.490;26.012;2022-12-10T00:43:55;74.07;;;37.97;;
19776;SDS011;10047;42.490;26.012;2022-12-10T00:46:23;69.85;;;37.13;;
19776;SDS011;10047;42.490;26.012;2022-12-10T00:48:48;78.45;;;39.25;;
19776;SDS011;10047;42.490;26.012;2022-12-10T00:51:15;81.95;;;39.75;;
19776;SDS011;10047;42.490;26.012;2022-12-10T00:53:43;73.97;;;39.08;;
19776;SDS011;10047;42.490;26.012;2022-12-10T00:56:10;63.30;;;36.45;;
19776;SDS011;10047;42.490;26.012;2022-12-10T00:58:37;69.60;;;38.45;;
19776;SDS011;10047;42.490;26.012;2022-12-10T01:01:10;72.65;;;37.13;;
19776;SDS011;10047;42.490;26.012;2022-12-10T01:06:14;71.72;;;38.58;;
19776;SDS011;10047;42.490;26.012;2022-12-10T01:08:42;71.88;;;39.80;;
19776;SDS011;10047;42.490;26.012;2022-12-10T01:11:09;66.57;;;38.30;;
19776;SDS011;10047;42.490;26.012;2022-12-10T01:13:36;75.35;;;40.58;;
19776;SDS011;10047;42.490;26.012;2022-12-10T01:16:04;71.20;;;40.63;;
19776;SDS011;10047;42.490;26.012;2022-12-10T01:18:32;74.75;;;41.13;;
19776;SDS011;10047;42.490;26.012;2022-12-10T01:21:04;71.78;;;38.88;;
19776;SDS011;10047;42.490;26.012;2022-12-10T01:23:35;75.53;;;42.03;;
19776;SDS011;10047;42.490;26.012;2022-12-10T01:26:03;81.40;;;42.80;;
19776;SDS011;10047;42.490;26.012;2022-12-10T01:28:34;73.70;;;41.85;;
19776;SDS011;10047;42.490;26.012;2022-12-10T01:31:01;76.30;;;45.05;;
19776;SDS011;10047;42.490;26.012;2022-12-10T01:33:29;77.45;;;41.72;;
19776;SDS011;10047;42.490;26.012;2022-12-10T01:35:54;73.43;;;40.47;;
19776;SDS011;10047;42.490;26.012;2022-12-10T01:38:20;72.95;;;40.08;;
19776;SDS011;10047;42.490;26.012;2022-12-10T01:40:45;77.60;;;42.28;;
19776;SDS011;10047;42.490;26.012;2022-12-10T01:43:14;88.93;;;43.05;;
19776;SDS011;10047;42.490;26.012;2022-12-10T01:45:40;83.40;;;41.65;;
19776;SDS011;10047;42.490;26.012;2022-12-10T01:48:06;84.72;;;38.38;;
19776;SDS011;10047;42.490;26.012;2022-12-10T01:50:32;80.35;;;37.63;;
19776;SDS011;10047;42.490;26.012;2022-12-10T01:52:57;84.45;;;41.47;;
19776;SDS011;10047;42.490;26.012;2022-12-10T01:58:11;86.65;;;37.55;;
19776;SDS011;10047;42.490;26.012;2022-12-10T02:00:38;77.78;;;37.08;;
19776;SDS011;10047;42.490;26.012;2022-12-10T02:03:14;80.75;;;36.70;;
19776;SDS011;10047;42.490;26.012;2022-12-10T02:05:54;79.78;;;36.92;;
19776;SDS011;10047;42.490;26.012;2022-12-10T02:08:30;80.50;;;38.58;;
19776;SDS011;10047;42.490;26.012;2022-12-10T02:13:45;95.22;;;39.10;;
19776;SDS011;10047;42.490;26.012;2022-12-10T02:16:21;111.60;;;42.03;;
19776;SDS011;10047;42.490;26.012;2022-12-10T02:18:56;93.80;;;39.35;;
19776;SDS011;10047;42.490;26.012;2022-12-10T02:21:33;130.85;;;43.70;;
19776;SDS011;10047;42.490;26.012;2022-12-10T02:24:03;120.47;;;41.45;;
19776;SDS011;10047;42.490;26.012;2022-12-10T02:29:29;116.93;;;40.85;;
19776;SDS011;10047;42.490;26.012;2022-12-10T02:31:59;87.93;;;38.53;;
19776;SDS011;10047;42.490;26.012;2022-12-10T02:34:29;83.45;;;36.10;;
19776;SDS011;10047;42.490;26.012;2022-12-10T02:37:01;78.75;;;35.90;;
19776;SDS011;10047;42.490;26.012;2022-12-10T02:39:33;69.03;;;33.55;;
19776;SDS011;10047;42.490;26.012;2022-12-10T02:42:03;76.97;;;33.80;;
19776;SDS011;10047;42.490;26.012;2022-12-10T02:44:31;86.68;;;35.58;;
19776;SDS011;10047;42.490;26.012;2022-12-10T02:47:01;77.78;;;35.13;;
19776;SDS011;10047;42.490;26.012;2022-12-10T02:49:28;85.32;;;34.60;;
19776;SDS011;10047;42.490;26.012;2022-12-10T02:51:55;75.72;;;32.95;;
19776;SDS011;10047;42.490;26.012;2022-12-10T02:54:36;69.35;;;32.33;;
19776;SDS011;10047;42.490;26.012;2022-12-10T02:57:09;85.95;;;32.75;;
19776;SDS011;10047;42.490;26.012;2022-12-10T03:05:22;123.57;;;33.38;;
19776;SDS011;10047;42.490;26.012;2022-12-10T03:08:01;131.82;;;34.00;;
19776;SDS011;10047;42.490;26.012;2022-12-10T03:13:27;116.45;;;34.83;;
19776;SDS011;10047;42.490;26.012;2022-12-10T03:16:34;103.22;;;34.08;;
19776;SDS011;10047;42.490;26.012;2022-12-10T03:19:04;109.57;;;33.20;;
19776;SDS011;10047;42.490;26.012;2022-12-10T03:21:32;105.80;;;33.80;;
19776;SDS011;10047;42.490;26.012;2022-12-10T03:24:02;114.75;;;34.05;;
19776;SDS011;10047;42.490;26.012;2022-12-10T03:26:28;189.18;;;34.67;;
19776;SDS011;10047;42.490;26.012;2022-12-10T03:29:01;107.90;;;32.55;;
19776;SDS011;10047;42.490;26.012;2022-12-10T03:31:49;149.75;;;35.35;;
19776;SDS011;10047;42.490;26.012;2022-12-10T03:34:17;142.48;;;35.17;;
19776;SDS011;10047;42.490;26.012;2022-12-10T03:36:43;159.80;;;37.33;;
19776;SDS011;10047;42.490;26.012;2022-12-10T03:39:09;155.43;;;37.42;;
19776;SDS011;10047;42.490;26.012;2022-12-10T03:41:35;123.28;;;34.92;;
19776;SDS011;10047;42.490;26.012;2022-12-10T03:44:01;120.45;;;36.42;;
19776;SDS011;10047;42.490;26.012;2022-12-10T03:46:27;119.05;;;35.58;;
19776;SDS011;10047;42.490;26.012;2022-12-10T03:48:54;135.43;;;35.45;;
19776;SDS011;10047;42.490;26.012;2022-12-10T03:51:21;137.63;;;36.95;;
19776;SDS011;10047;42.490;26.012;2022-12-10T03:53:47;118.85;;;36.28;;
19776;SDS011;10047;42.490;26.012;2022-12-10T03:56:15;123.47;;;34.92;;
19776;SDS011;10047;42.490;26.012;2022-12-10T03:58:41;99.75;;;34.30;;
19776;SDS011;10047;42.490;26.012;2022-12-10T04:01:07;97.30;;;34.55;;
19776;SDS011;10047;42.490;26.012;2022-12-10T04:03:36;89.78;;;33.95;;
19776;SDS011;10047;42.490;26.012;2022-12-10T04:06:03;95.00;;;33.13;;
19776;SDS011;10047;42.490;26.012;2022-12-10T04:08:30;100.53;;;33.05;;
19776;SDS011;10047;42.490;26.012;2022-12-10T04:11:01;95.47;;;33.20;;
19776;SDS011;10047;42.490;26.012;2022-12-10T04:13:31;73.32;;;30.98;;
19776;SDS011;10047;42.490;26.012;2022-12-10T04:16:16;82.47;;;32.80;;
19776;SDS011;10047;42.490;26.012;2022-12-10T04:18:54;76.95;;;31.13;;
19776;SDS011;10047;42.490;26.012;2022-12-10T04:21:28;85.22;;;31.27;;
19776;SDS011;10047;42.490;26.012;2022-12-10T04:27:10;108.13;;;35.10;;
19776;SDS011;10047;42.490;26.012;2022-12-10T04:29:37;103.95;;;39.78;;
19776;SDS011;10047;42.490;26.012;2022-12-10T04:32:05;90.25;;;38.13;;
19776;SDS011;10047;42.490;26.012;2022-12-10T04:34:31;102.72;;;39.25;;
19776;SDS011;10047;42.490;26.012;2022-12-10T04:37:00;114.82;;;43.78;;
19776;SDS011;10047;42.490;26.012;2022-12-10T04:39:26;93.90;;;42.45;;
19776;SDS011;10047;42.490;26.012;2022-12-10T04:41:51;101.75;;;46.80;;
19776;SDS011;10047;42.490;26.012;2022-12-10T04:44:17;88.72;;;45.30;;
19776;SDS011;10047;42.490;26.012;2022-12-10T04:46:43;86.28;;;45.72;;
19776;SDS011;10047;42.490;26.012;2022-12-10T04:49:09;92.63;;;46.00;;
19776;SDS011;10047;42.490;26.012;2022-12-10T04:51:35;91.00;;;44.22;;
19776;SDS011;10047;42.490;26.012;2022-12-10T04:54:01;89.15;;;44.25;;
19776;SDS011;10047;42.490;26.012;2022-12-10T04:56:26;82.57;;;43.08;;
19776;SDS011;10047;42.490;26.012;2022-12-10T04:58:52;61.13;;;30.65;;
19776;SDS011;10047;42.490;26.012;2022-12-10T05:01:20;75.97;;;38.75;;
19776;SDS011;10047;42.490;26.012;2022-12-10T05:03:46;76.60;;;41.22;;
19776;SDS011;10047;42.490;26.012;2022-12-10T05:06:12;82.82;;;43.00;;
19776;SDS011;10047;42.490;26.012;2022-12-10T05:08:39;73.80;;;41.30;;
19776;SDS011;10047;42.490;26.012;2022-12-10T05:11:27;75.93;;;43.47;;
19776;SDS011;10047;42.490;26.012;2022-12-10T05:13:53;89.65;;;49.17;;
19776;SDS011;10047;42.490;26.012;2022-12-10T05:16:20;100.10;;;57.70;;
19776;SDS011;10047;42.490;26.012;2022-12-10T05:18:47;103.55;;;62.63;;
19776;SDS011;10047;42.490;26.012;2022-12-10T05:21:13;85.60;;;50.50;;
19776;SDS011;10047;42.490;26.012;2022-12-10T05:23:42;88.95;;;51.83;;
19776;SDS011;10047;42.490;26.012;2022-12-10T05:26:13;77.97;;;42.05;;
19776;SDS011;10047;42.490;26.012;2022-12-10T05:28:47;79.43;;;42.75;;
19776;SDS011;10047;42.490;26.012;2022-12-10T05:31:18;89.88;;;45.30;;
19776;SDS011;10047;42.490;26.012;2022-12-10T05:33:52;88.15;;;43.58;;
19776;SDS011;10047;42.490;26.012;2022-12-10T05:36:19;83.93;;;40.60;;
19776;SDS011;10047;42.490;26.012;2022-12-10T05:38:47;92.28;;;45.90;;
19776;SDS011;10047;42.490;26.012;2022-12-10T05:41:13;88.93;;;47.75;;
19776;SDS011;10047;42.490;26.012;2022-12-10T05:43:41;87.95;;;49.42;;
19776;SDS011;10047;42.490;26.012;2022-12-10T05:46:15;130.00;;;84.32;;
19776;SDS011;10047;42.490;26.012;2022-12-10T05:48:43;147.20;;;91.95;;
19776;SDS011;10047;42.490;26.012;2022-12-10T05:51:10;153.45;;;89.88;;
19776;SDS011;10047;42.490;26.012;2022-12-10T05:53:38;120.18;;;73.55;;
19776;SDS011;10047;42.490;26.012;2022-12-10T05:56:09;107.05;;;64.22;;
19776;SDS011;10047;42.490;26.012;2022-12-10T05:58:37;103.53;;;66.38;;
19776;SDS011;10047;42.490;26.012;2022-12-10T06:01:07;88.60;;;51.75;;
19776;SDS011;10047;42.490;26.012;2022-12-10T06:03:35;59.25;;;36.35;;
19776;SDS011;10047;42.490;26.012;2022-12-10T06:06:00;70.45;;;44.90;;
19776;SDS011;10047;42.490;26.012;2022-12-10T06:08:26;67.00;;;43.17;;
19776;SDS011;10047;42.490;26.012;2022-12-10T06:10:51;65.40;;;44.30;;
19776;SDS011;10047;42.490;26.012;2022-12-10T06:13:17;52.92;;;36.22;;
19776;SDS011;10047;42.490;26.012;2022-12-10T06:15:42;53.42;;;35.58;;
19776;SDS011;10047;42.490;26.012;2022-12-10T06:18:08;46.40;;;32.00;;
19776;SDS011;10047;42.490;26.012;2022-12-10T06:20:33;67.22;;;42.60;;
19776;SDS011;10047;42.490;26.012;2022-12-10T06:23:02;44.90;;;32.85;;
19776;SDS011;10047;42.490;26.012;2022-12-10T06:25:27;56.53;;;38.95;;
19776;SDS011;10047;42.490;26.012;2022-12-10T06:27:53;97.90;;;60.45;;
19776;SDS011;10047;42.490;26.012;2022-12-10T06:30:18;63.22;;;43.92;;
19776;SDS011;10047;42.490;26.012;2022-12-10T06:32:44;88.20;;;58.33;;
19776;SDS011;10047;42.490;26.012;2022-12-10T06:35:09;85.05;;;56.92;;
19776;SDS011;10047;42.490;26.012;2022-12-10T06:37:35;82.15;;;52.75;;
19776;SDS011;10047;42.490;26.012;2022-12-10T06:40:01;63.63;;;44.78;;
19776;SDS011;10047;42.490;26.012;2022-12-10T06:42:27;75.32;;;55.30;;
19776;SDS011;10047;42.490;26.012;2022-12-10T06:44:53;81.85;;;61.75;;
19776;SDS011;10047;42.490;26.012;2022-12-10T06:47:18;63.40;;;47.05;;
19776;SDS011;10047;42.490;26.012;2022-12-10T06:49:43;66.32;;;49.63;;
19776;SDS011;10047;42.490;26.012;2022-12-10T06:52:09;66.35;;;50.03;;
19776;SDS011;10047;42.490;26.012;2022-12-10T06:54:34;51.85;;;41.15;;
19776;SDS011;10047;42.490;26.012;2022-12-10T06:57:00;56.60;;;42.72;;
19776;SDS011;10047;42.490;26.012;2022-12-10T06:59:25;97.78;;;70.05;;
19776;SDS011;10047;42.490;26.012;2022-12-10T07:01:51;110.47;;;77.60;;
19776;SDS011;10047;42.490;26.012;2022-12-10T07:04:16;82.57;;;61.55;;
19776;SDS011;10047;42.490;26.012;2022-12-10T07:06:42;112.38;;;78.35;;
19776;SDS011;10047;42.490;26.012;2022-12-10T07:09:07;68.82;;;49.28;;
19776;SDS011;10047;42.490;26.012;2022-12-10T07:11:35;53.15;;;33.58;;
19776;SDS011;10047;42.490;26.012;2022-12-10T07:14:01;53.28;;;39.70;;
19776;SDS011;10047;42.490;26.012;2022-12-10T07:16:28;45.78;;;33.25;;
19776;SDS011;10047;42.490;26.012;2022-12-10T07:18:55;41.83;;;32.15;;
19776;SDS011;10047;42.490;26.012;2022-12-10T07:21:24;43.58;;;33.58;;
19776;SDS011;10047;42.490;26.012;2022-12-10T07:23:51;49.67;;;36.90;;
19776;SDS011;10047;42.490;26.012;2022-12-10T07:26:19;43.97;;;31.42;;
19776;SDS011;10047;42.490;26.012;2022-12-10T07:28:45;42.80;;;34.13;;
19776;SDS011;10047;42.490;26.012;2022-12-10T07:31:11;47.40;;;34.50;;
19776;SDS011;10047;42.490;26.012;2022-12-10T07:33:36;50.13;;;33.25;;
19776;SDS011;10047;42.490;26.012;2022-12-10T07:36:06;50.20;;;35.50;;
19776;SDS011;10047;42.490;26.012;2022-12-10T07:38:32;46.33;;;32.53;;
19776;SDS011;10047;42.490;26.012;2022-12-10T07:41:01;46.88;;;35.40;;
19776;SDS011;10047;42.490;26.012;2022-12-10T07:43:29;39.67;;;29.58;;
19776;SDS011;10047;42.490;26.012;2022-12-10T07:45:55;43.53;;;32.05;;
19776;SDS011;10047;42.490;26.012;2022-12-10T07:48:27;41.08;;;30.45;;
19776;SDS011;10047;42.490;26.012;2022-12-10T07:50:55;37.03;;;27.95;;
19776;SDS011;10047;42.490;26.012;2022-12-10T07:53:22;39.08;;;28.48;;
19776;SDS011;10047;42.490;26.012;2022-12-10T07:55:48;39.03;;;28.88;;
19776;SDS011;10047;42.490;26.012;2022-12-10T07:58:15;40.28;;;28.77;;
19776;SDS011;10047;42.490;26.012;2022-12-10T08:00:40;44.13;;;30.75;;
19776;SDS011;10047;42.490;26.012;2022-12-10T08:03:06;46.00;;;33.85;;
19776;SDS011;10047;42.490;26.012;2022-12-10T08:05:31;55.92;;;36.40;;
19776;SDS011;10047;42.490;26.012;2022-12-10T08:07:56;57.30;;;37.55;;
19776;SDS011;10047;42.490;26.012;2022-12-10T08:10:22;60.70;;;39.28;;
19776;SDS011;10047;42.490;26.012;2022-12-10T08:12:47;56.35;;;37.55;;
19776;SDS011;10047;42.490;26.012;2022-12-10T08:15:12;54.53;;;38.63;;
19776;SDS011;10047;42.490;26.012;2022-12-10T08:17:38;53.58;;;36.13;;
19776;SDS011;10047;42.490;26.012;2022-12-10T08:20:03;49.90;;;36.70;;
19776;SDS011;10047;42.490;26.012;2022-12-10T08:22:29;52.92;;;36.20;;
19776;SDS011;10047;42.490;26.012;2022-12-10T08:24:55;44.08;;;32.53;;
19776;SDS011;10047;42.490;26.012;2022-12-10T08:27:20;41.83;;;31.55;;
19776;SDS011;10047;42.490;26.012;2022-12-10T08:29:45;47.78;;;34.47;;
19776;SDS011;10047;42.490;26.012;2022-12-10T08:32:11;43.50;;;30.70;;
19776;SDS011;10047;42.490;26.012;2022-12-10T08:34:36;46.30;;;32.15;;
19776;SDS011;10047;42.490;26.012;2022-12-10T08:37:02;44.13;;;32.78;;
19776;SDS011;10047;42.490;26.012;2022-12-10T08:39:28;58.90;;;38.90;;
19776;SDS011;10047;42.490;26.012;2022-12-10T08:41:53;51.65;;;40.20;;
19776;SDS011;10047;42.490;26.012;2022-12-10T08:44:19;57.40;;;42.63;;
19776;SDS011;10047;42.490;26.012;2022-12-10T08:46:44;59.67;;;42.30;;
19776;SDS011;10047;42.490;26.012;2022-12-10T08:49:10;62.50;;;43.45;;
19776;SDS011;10047;42.490;26.012;2022-12-10T08:51:35;57.65;;;37.63;;
19776;SDS011;10047;42.490;26.012;2022-12-10T08:54:01;51.38;;;33.38;;
19776;SDS011;10047;42.490;26.012;2022-12-10T08:56:26;51.20;;;30.98;;
19776;SDS011;10047;42.490;26.012;2022-12-10T08:58:52;42.58;;;28.60;;
19776;SDS011;10047;42.490;26.012;2022-12-10T09:01:18;48.35;;;27.63;;
19776;SDS011;10047;42.490;26.012;2022-12-10T09:03:44;50.40;;;31.50;;
19776;SDS011;10047;42.490;26.012;2022-12-10T09:06:12;45.80;;;30.75;;
19776;SDS011;10047;42.490;26.012;2022-12-10T09:08:39;47.72;;;29.73;;
19776;SDS011;10047;42.490;26.012;2022-12-10T09:11:09;50.00;;;34.40;;
19776;SDS011;10047;42.490;26.012;2022-12-10T09:13:54;63.00;;;43.13;;
19776;SDS011;10047;42.490;26.012;2022-12-10T09:16:20;52.15;;;33.38;;
19776;SDS011;10047;42.490;26.012;2022-12-10T09:18:46;55.40;;;34.80;;
19776;SDS011;10047;42.490;26.012;2022-12-10T09:21:14;60.92;;;35.53;;
19776;SDS011;10047;42.490;26.012;2022-12-10T09:23:41;54.15;;;34.97;;
19776;SDS011;10047;42.490;26.012;2022-12-10T09:26:09;54.47;;;33.20;;
19776;SDS011;10047;42.490;26.012;2022-12-10T09:28:35;54.78;;;33.08;;
19776;SDS011;10047;42.490;26.012;2022-12-10T09:31:02;54.63;;;34.78;;
19776;SDS011;10047;42.490;26.012;2022-12-10T09:33:29;55.95;;;35.75;;
19776;SDS011;10047;42.490;26.012;2022-12-10T09:35:55;57.78;;;36.20;;
19776;SDS011;10047;42.490;26.012;2022-12-10T09:38:21;55.40;;;36.03;;
19776;SDS011;10047;42.490;26.012;2022-12-10T09:41:05;52.50;;;33.10;;
19776;SDS011;10047;42.490;26.012;2022-12-10T09:52:26;48.95;;;32.10;;
19776;SDS011;10047;42.490;26.012;2022-12-10T09:55:00;49.45;;;30.40;;
19776;SDS011;10047;42.490;26.012;2022-12-10T09:57:33;46.58;;;26.75;;
19776;SDS011;10047;42.490;26.012;2022-12-10T10:00:04;50.22;;;29.23;;
19776;SDS011;10047;42.490;26.012;2022-12-10T10:02:40;41.28;;;25.55;;
19776;SDS011;10047;42.490;26.012;2022-12-10T10:07:33;42.97;;;26.73;;
19776;SDS011;10047;42.490;26.012;2022-12-10T10:15:49;44.35;;;25.00;;
19776;SDS011;10047;42.490;26.012;2022-12-10T10:18:28;44.00;;;24.83;;
19776;SDS011;10047;42.490;26.012;2022-12-10T10:20:59;53.80;;;30.08;;
19776;SDS011;10047;42.490;26.012;2022-12-10T10:23:26;64.45;;;36.03;;
19776;SDS011;10047;42.490;26.012;2022-12-10T10:25:51;45.08;;;23.83;;
19776;SDS011;10047;42.490;26.012;2022-12-10T10:28:18;36.80;;;21.63;;
19776;SDS011;10047;42.490;26.012;2022-12-10T10:30:45;43.22;;;22.08;;
19776;SDS011;10047;42.490;26.012;2022-12-10T10:33:13;33.67;;;18.30;;
19776;SDS011;10047;42.490;26.012;2022-12-10T10:35:47;41.80;;;20.02;;
19776;SDS011;10047;42.490;26.012;2022-12-10T10:38:22;30.98;;;15.82;;
19776;SDS011;10047;42.490;26.012;2022-12-10T10:40:51;29.35;;;15.07;;
19776;SDS011;10047;42.490;26.012;2022-12-10T10:43:20;26.90;;;15.05;;
19776;SDS011;10047;42.490;26.012;2022-12-10T10:45:52;29.60;;;15.52;;
19776;SDS011;10047;42.490;26.012;2022-12-10T10:48:24;28.65;;;15.68;;
19776;SDS011;10047;42.490;26.012;2022-12-10T10:50:54;33.33;;;16.00;;
19776;SDS011;10047;42.490;26.012;2022-12-10T10:56:39;30.75;;;16.35;;
19776;SDS011;10047;42.490;26.012;2022-12-10T11:01:48;34.38;;;16.25;;
19776;SDS011;10047;42.490;26.012;2022-12-10T11:04:16;32.38;;;16.45;;
19776;SDS011;10047;42.490;26.012;2022-12-10T11:06:44;32.75;;;17.00;;
19776;SDS011;10047;42.490;26.012;2022-12-10T11:09:18;42.50;;;23.17;;
19776;SDS011;10047;42.490;26.012;2022-12-10T11:11:49;45.67;;;27.08;;
19776;SDS011;10047;42.490;26.012;2022-12-10T11:14:24;33.55;;;18.35;;
19776;SDS011;10047;42.490;26.012;2022-12-10T11:17:02;33.17;;;19.63;;
19776;SDS011;10047;42.490;26.012;2022-12-10T11:19:42;50.75;;;30.95;;
19776;SDS011;10047;42.490;26.012;2022-12-10T11:22:19;33.20;;;17.30;;
19776;SDS011;10047;42.490;26.012;2022-12-10T11:24:47;36.15;;;19.35;;
19776;SDS011;10047;42.490;26.012;2022-12-10T11:27:20;38.75;;;18.63;;
19776;SDS011;10047;42.490;26.012;2022-12-10T11:29:58;39.13;;;18.95;;
19776;SDS011;10047;42.490;26.012;2022-12-10T11:32:51;56.97;;;27.85;;
19776;SDS011;10047;42.490;26.012;2022-12-10T11:38:24;30.92;;;16.17;;
19776;SDS011;10047;42.490;26.012;2022-12-10T11:49:24;34.55;;;18.35;;
19776;SDS011;10047;42.490;26.012;2022-12-10T11:52:18;34.80;;;19.60;;
19776;SDS011;10047;42.490;26.012;2022-12-10T11:57:43;36.80;;;21.30;;
19776;SDS011;10047;42.490;26.012;2022-12-10T12:00:39;32.22;;;17.17;;
19776;SDS011;10047;42.490;26.012;2022-12-10T12:09:11;26.70;;;14.05;;
19776;SDS011;10047;42.490;26.012;2022-12-10T12:14:51;36.75;;;16.23;;
19776;SDS011;10047;42.490;26.012;2022-12-10T12:17:30;28.02;;;15.80;;
19776;SDS011;10047;42.490;26.012;2022-12-10T12:23:04;26.33;;;16.15;;
19776;SDS011;10047;42.490;26.012;2022-12-10T12:26:02;28.17;;;16.30;;
19776;SDS011;10047;42.490;26.012;2022-12-10T12:28:41;27.70;;;15.98;;
19776;SDS011;10047;42.490;26.012;2022-12-10T12:31:20;28.75;;;15.05;;
19776;SDS011;10047;42.490;26.012;2022-12-10T12:33:54;41.55;;;20.92;;
19776;SDS011;10047;42.490;26.012;2022-12-10T12:36:30;37.85;;;18.90;;
19776;SDS011;10047;42.490;26.012;2022-12-10T12:39:17;26.98;;;15.30;;
19776;SDS011;10047;42.490;26.012;2022-12-10T12:42:17;36.70;;;16.98;;
19776;SDS011;10047;42.490;26.012;2022-12-10T12:45:01;29.38;;;15.63;;
19776;SDS011;10047;42.490;26.012;2022-12-10T12:50:25;32.08;;;16.35;;
19776;SDS011;10047;42.490;26.012;2022-12-10T12:52:57;34.47;;;16.45;;
19776;SDS011;10047;42.490;26.012;2022-12-10T12:55:29;31.65;;;16.13;;
19776;SDS011;10047;42.490;26.012;2022-12-10T13:00:48;26.55;;;13.77;;
19776;SDS011;10047;42.490;26.012;2022-12-10T13:03:33;30.02;;;14.45;;
19776;SDS011;10047;42.490;26.012;2022-12-10T13:06:21;28.98;;;14.23;;
19776;SDS011;10047;42.490;26.012;2022-12-10T13:08:53;30.73;;;14.27;;
19776;SDS011;10047;42.490;26.012;2022-12-10T13:11:32;35.10;;;15.65;;
19776;SDS011;10047;42.490;26.012;2022-12-10T13:33:00;47.00;;;29.63;;
19776;SDS011;10047;42.490;26.012;2022-12-10T13:37:37;29.27;;;15.32;;
19776;SDS011;10047;42.490;26.012;2022-12-10T13:43:29;31.45;;;15.55;;
19776;SDS011;10047;42.490;26.012;2022-12-10T13:46:31;33.72;;;16.63;;
19776;SDS011;10047;42.490;26.012;2022-12-10T13:48:59;31.20;;;17.05;;
19776;SDS011;10047;42.490;26.012;2022-12-10T13:56:30;27.15;;;17.35;;
19776;SDS011;10047;42.490;26.012;2022-12-10T13:59:20;40.42;;;18.92;;
19776;SDS011;10047;42.490;26.012;2022-12-10T14:04:41;39.58;;;20.15;;
19776;SDS011;10047;42.490;26.012;2022-12-10T14:07:18;40.42;;;20.25;;
19776;SDS011;10047;42.490;26.012;2022-12-10T14:09:46;34.70;;;18.48;;
19776;SDS011;10047;42.490;26.012;2022-12-10T14:12:26;39.50;;;21.13;;
19776;SDS011;10047;42.490;26.012;2022-12-10T14:14:56;37.38;;;20.50;;
19776;SDS011;10047;42.490;26.012;2022-12-10T14:17:30;38.65;;;20.70;;
19776;SDS011;10047;42.490;26.012;2022-12-10T14:19:57;38.92;;;21.55;;
19776;SDS011;10047;42.490;26.012;2022-12-10T14:25:06;54.95;;;23.70;;
19776;SDS011;10047;42.490;26.012;2022-12-10T14:27:37;61.72;;;29.75;;
19776;SDS011;10047;42.490;26.012;2022-12-10T14:30:14;74.07;;;42.67;;
19776;SDS011;10047;42.490;26.012;2022-12-10T14:32:42;100.70;;;66.20;;
19776;SDS011;10047;42.490;26.012;2022-12-10T14:35:12;91.57;;;58.80;;
19776;SDS011;10047;42.490;26.012;2022-12-10T14:37:42;91.93;;;58.40;;
19776;SDS011;10047;42.490;26.012;2022-12-10T14:40:17;158.43;;;100.90;;
19776;SDS011;10047;42.490;26.012;2022-12-10T14:42:48;100.45;;;63.97;;
19776;SDS011;10047;42.490;26.012;2022-12-10T14:45:15;74.53;;;43.40;;
19776;SDS011;10047;42.490;26.012;2022-12-10T14:47:41;45.00;;;28.00;;
19776;SDS011;10047;42.490;26.012;2022-12-10T14:50:13;55.30;;;34.35;;
19776;SDS011;10047;42.490;26.012;2022-12-10T14:52:42;70.38;;;40.40;;
19776;SDS011;10047;42.490;26.012;2022-12-10T14:55:13;50.47;;;32.58;;
19776;SDS011;10047;42.490;26.012;2022-12-10T14:57:42;59.70;;;37.83;;
19776;SDS011;10047;42.490;26.012;2022-12-10T15:02:41;70.00;;;43.20;;
19776;SDS011;10047;42.490;26.012;2022-12-10T15:05:18;55.38;;;34.08;;
19776;SDS011;10047;42.490;26.012;2022-12-10T15:10:22;58.70;;;37.03;;
19776;SDS011;10047;42.490;26.012;2022-12-10T15:12:51;60.42;;;37.45;;
19776;SDS011;10047;42.490;26.012;2022-12-10T15:15:24;54.60;;;36.65;;
19776;SDS011;10047;42.490;26.012;2022-12-10T15:18:07;55.35;;;34.67;;
19776;SDS011;10047;42.490;26.012;2022-12-10T15:28:28;57.50;;;38.53;;
19776;SDS011;10047;42.490;26.012;2022-12-10T15:30:56;68.47;;;44.55;;
19776;SDS011;10047;42.490;26.012;2022-12-10T15:33:36;66.40;;;45.33;;
19776;SDS011;10047;42.490;26.012;2022-12-10T15:36:04;77.18;;;48.92;;
19776;SDS011;10047;42.490;26.012;2022-12-10T15:38:30;81.82;;;53.83;;
19776;SDS011;10047;42.490;26.012;2022-12-10T15:40:57;100.78;;;62.17;;
19776;SDS011;10047;42.490;26.012;2022-12-10T15:43:28;81.57;;;53.35;;
19776;SDS011;10047;42.490;26.012;2022-12-10T15:45:55;57.75;;;36.42;;
19776;SDS011;10047;42.490;26.012;2022-12-10T15:48:21;66.15;;;43.45;;
19776;SDS011;10047;42.490;26.012;2022-12-10T15:50:49;63.55;;;38.85;;
19776;SDS011;10047;42.490;26.012;2022-12-10T15:53:19;76.10;;;51.38;;
19776;SDS011;10047;42.490;26.012;2022-12-10T15:55:50;71.38;;;46.45;;
19776;SDS011;10047;42.490;26.012;2022-12-10T15:58:16;68.68;;;43.15;;
19776;SDS011;10047;42.490;26.012;2022-12-10T16:00:42;82.50;;;53.97;;
19776;SDS011;10047;42.490;26.012;2022-12-10T16:03:13;104.07;;;65.07;;
19776;SDS011;10047;42.490;26.012;2022-12-10T16:05:40;125.18;;;75.93;;
19776;SDS011;10047;42.490;26.012;2022-12-10T16:08:11;117.05;;;71.32;;
19776;SDS011;10047;42.490;26.012;2022-12-10T16:10:52;82.18;;;56.78;;
19776;SDS011;10047;42.490;26.012;2022-12-10T16:13:22;69.47;;;47.63;;
19776;SDS011;10047;42.490;26.012;2022-12-10T16:18:26;46.47;;;30.40;;
19776;SDS011;10047;42.490;26.012;2022-12-10T16:20:51;45.22;;;27.08;;
19776;SDS011;10047;42.490;26.012;2022-12-10T16:23:18;43.95;;;27.45;;
19776;SDS011;10047;42.490;26.012;2022-12-10T16:25:44;50.65;;;27.48;;
19776;SDS011;10047;42.490;26.012;2022-12-10T16:28:15;42.50;;;24.90;;
19776;SDS011;10047;42.490;26.012;2022-12-10T16:30:44;38.15;;;22.98;;